createdAt,value
2018-07-17T00:00:50.295Z,15.53
2018-07-17T00:02:50.496Z,15.49
2018-07-17T00:04:49.943Z,15.45
2018-07-17T00:06:50.271Z,15.40
2018-07-17T00:08:50.379Z,15.36
2018-07-17T00:10:50.507Z,15.32
2018-07-17T00:12:51.176Z,15.29
2018-07-17T00:14:50.558Z,15.25
2018-07-17T00:16:50.822Z,15.20
2018-07-17T00:18:49.998Z,15.16
2018-07-17T00:20:50.124Z,15.09
2018-07-17T00:22:50.257Z,15.07
2018-07-17T00:24:50.528Z,15.05
2018-07-17T00:26:49.854Z,15.01
2018-07-17T00:28:50.065Z,14.98
2018-07-17T00:30:50.275Z,14.93
2018-07-17T00:32:50.398Z,14.91
2018-07-17T00:34:49.898Z,14.88
2018-07-17T00:36:50.150Z,14.83
2018-07-17T00:38:50.301Z,14.82
2018-07-17T00:40:50.424Z,14.82
2018-07-17T00:42:50.580Z,14.80
2018-07-17T00:44:50.686Z,14.80
2018-07-17T00:46:50.110Z,14.77
2018-07-17T00:48:50.291Z,14.79
2018-07-17T00:50:50.405Z,14.77
2018-07-17T00:52:50.635Z,14.73
2018-07-17T00:54:50.750Z,14.70
2018-07-17T00:56:50.130Z,14.65
2018-07-17T00:58:50.327Z,14.58
2018-07-17T01:00:50.490Z,14.55
2018-07-17T01:02:50.312Z,14.55
2018-07-17T01:04:50.735Z,14.50
2018-07-17T01:06:50.304Z,14.45
2018-07-17T01:08:50.509Z,14.41
2018-07-17T01:10:50.636Z,14.37
2018-07-17T01:12:50.697Z,14.36
2018-07-17T01:14:49.987Z,14.36
2018-07-17T01:16:50.433Z,14.37
2018-07-17T01:18:50.539Z,14.34
2018-07-17T01:20:50.619Z,14.31
2018-07-17T01:22:50.785Z,14.29
2018-07-17T01:24:50.001Z,14.23
2018-07-17T01:26:50.524Z,14.19
2018-07-17T01:28:50.616Z,14.15
2018-07-17T01:30:50.798Z,14.11
2018-07-17T01:32:49.947Z,14.10
2018-07-17T01:34:50.325Z,14.09
2018-07-17T01:36:50.674Z,14.05
2018-07-17T01:38:50.860Z,14.02
2018-07-17T01:40:50.046Z,14.00
2018-07-17T01:42:50.235Z,13.99
2018-07-17T01:44:50.405Z,13.97
2018-07-17T01:46:50.796Z,13.95
2018-07-17T01:48:49.941Z,13.93
2018-07-17T01:50:50.050Z,13.91
2018-07-17T01:52:50.221Z,13.87
2018-07-17T01:54:50.355Z,13.86
2018-07-17T01:56:50.619Z,13.81
2018-07-17T01:58:50.841Z,13.78
2018-07-17T02:00:49.991Z,13.77
2018-07-17T02:02:50.109Z,13.80
2018-07-17T02:04:51.104Z,13.80
2018-07-17T02:06:50.715Z,13.80
2018-07-17T02:08:50.074Z,13.77
2018-07-17T02:10:50.236Z,13.72
2018-07-17T02:12:50.439Z,13.69
2018-07-17T02:14:50.538Z,13.66
2018-07-17T02:16:49.950Z,13.66
2018-07-17T02:18:50.403Z,13.62
2018-07-17T02:20:50.725Z,13.60
2018-07-17T02:22:49.876Z,13.55
2018-07-17T02:24:50.050Z,13.53
2018-07-17T02:26:50.360Z,13.51
2018-07-17T02:28:50.479Z,13.50
2018-07-17T02:30:50.647Z,13.50
2018-07-17T02:32:50.836Z,13.49
2018-07-17T02:34:50.283Z,13.49
2018-07-17T02:36:50.709Z,13.46
2018-07-17T02:38:49.878Z,13.43
2018-07-17T02:40:50.011Z,13.38
2018-07-17T02:42:50.217Z,13.34
2018-07-17T02:44:50.419Z,13.35
2018-07-17T02:46:50.723Z,13.33
2018-07-17T02:48:49.945Z,13.31
2018-07-17T02:50:50.062Z,13.28
2018-07-17T02:52:50.198Z,13.27
2018-07-17T02:54:50.315Z,13.24
2018-07-17T02:56:50.627Z,13.23
2018-07-17T02:58:49.947Z,13.23
2018-07-17T03:00:50.131Z,13.23
2018-07-17T03:02:50.426Z,13.21
2018-07-17T03:04:49.962Z,13.18
2018-07-17T03:06:50.480Z,13.17
2018-07-17T03:08:50.743Z,13.15
2018-07-17T03:10:49.949Z,13.14
2018-07-17T03:12:50.131Z,13.08
2018-07-17T03:14:50.259Z,13.09
2018-07-17T03:16:50.595Z,13.12
2018-07-17T03:18:50.788Z,13.11
2018-07-17T03:20:49.968Z,13.09
2018-07-17T03:22:50.161Z,13.05
2018-07-17T03:24:50.384Z,13.04
2018-07-17T03:26:50.675Z,13.02
2018-07-17T03:28:50.879Z,13.04
2018-07-17T03:30:50.045Z,13.03
2018-07-17T03:32:50.241Z,13.01
2018-07-17T03:34:50.574Z,12.99
2018-07-17T03:36:50.014Z,12.96
2018-07-17T03:38:50.144Z,12.96
2018-07-17T03:40:50.326Z,12.93
2018-07-17T03:42:50.424Z,12.90
2018-07-17T03:44:50.546Z,12.88
2018-07-17T03:46:49.996Z,12.90
2018-07-17T03:48:50.144Z,12.91
2018-07-17T03:50:50.281Z,12.94
2018-07-17T03:52:50.436Z,12.98
2018-07-17T03:54:50.638Z,12.97
2018-07-17T03:56:49.913Z,12.97
2018-07-17T03:58:50.059Z,12.98
2018-07-17T04:00:50.363Z,12.97
2018-07-17T04:02:51.175Z,12.94
2018-07-17T04:04:50.662Z,12.93
2018-07-17T04:06:49.960Z,12.93
2018-07-17T04:08:50.149Z,12.94
2018-07-17T04:10:50.316Z,12.95
2018-07-17T04:12:50.504Z,12.97
2018-07-17T04:14:50.665Z,13.02
2018-07-17T04:16:50.114Z,13.04
2018-07-17T04:18:50.322Z,13.07
2018-07-17T04:20:50.464Z,13.10
2018-07-17T04:22:50.695Z,13.14
2018-07-17T04:24:49.875Z,13.20
2018-07-17T04:26:50.188Z,13.23
2018-07-17T04:28:50.306Z,13.29
2018-07-17T04:30:50.462Z,13.36
2018-07-17T04:32:50.574Z,13.43
2018-07-17T04:34:49.956Z,13.49
2018-07-17T04:36:50.234Z,13.58
2018-07-17T04:38:50.402Z,13.67
2018-07-17T04:40:50.567Z,13.78
2018-07-17T04:42:50.645Z,13.86
2018-07-17T04:44:50.752Z,13.96
2018-07-17T04:46:50.116Z,14.06
2018-07-17T04:48:50.279Z,14.20
2018-07-17T04:50:50.383Z,14.29
2018-07-17T04:52:50.440Z,14.40
2018-07-17T04:54:50.549Z,14.48
2018-07-17T04:56:50.826Z,14.58
2018-07-17T04:58:50.031Z,14.70
2018-07-17T05:00:50.160Z,14.78
2018-07-17T05:02:50.313Z,14.87
2018-07-17T05:04:50.691Z,14.91
2018-07-17T05:06:49.971Z,15.04
2018-07-17T05:08:50.093Z,15.19
2018-07-17T05:10:50.271Z,15.29
2018-07-17T05:12:50.847Z,15.42
2018-07-17T05:14:50.026Z,15.49
2018-07-17T05:16:50.300Z,15.58
2018-07-17T05:18:50.406Z,15.62
2018-07-17T05:20:50.624Z,15.71
2018-07-17T05:22:51.244Z,15.80
2018-07-17T05:24:50.501Z,15.82
2018-07-17T05:26:50.822Z,15.87
2018-07-17T05:28:50.165Z,15.99
2018-07-17T05:30:50.407Z,16.13
2018-07-17T05:32:50.530Z,16.22
2018-07-17T05:34:49.969Z,16.29
2018-07-17T05:36:49.968Z,16.32
2018-07-17T05:38:50.099Z,16.28
2018-07-17T05:40:50.274Z,16.32
2018-07-17T05:42:50.513Z,16.37
2018-07-17T05:44:50.756Z,16.49
2018-07-17T05:46:50.239Z,16.54
2018-07-17T05:48:50.394Z,16.62
2018-07-17T05:50:50.581Z,16.75
2018-07-17T05:52:50.712Z,16.83
2018-07-17T05:54:50.822Z,16.87
2018-07-17T05:56:50.128Z,16.92
2018-07-17T05:58:50.289Z,17.00
2018-07-17T06:00:50.412Z,17.07
2018-07-17T06:02:50.518Z,17.22
2018-07-17T06:04:49.948Z,17.29
2018-07-17T06:06:50.171Z,17.36
2018-07-17T06:08:50.449Z,17.45
2018-07-17T06:10:50.557Z,17.57
2018-07-17T06:12:50.701Z,17.63
2018-07-17T06:14:49.950Z,17.67
2018-07-17T06:16:50.214Z,17.76
2018-07-17T06:18:50.513Z,17.93
2018-07-17T06:20:49.955Z,18.10
2018-07-17T06:22:50.089Z,18.21
2018-07-17T06:24:50.162Z,18.29
2018-07-17T06:26:50.549Z,18.42
2018-07-17T06:28:49.877Z,18.50
2018-07-17T06:30:50.096Z,18.61
2018-07-17T06:32:50.392Z,18.63
2018-07-17T06:34:50.798Z,18.67
2018-07-17T06:36:50.388Z,18.78
2018-07-17T06:38:50.975Z,18.88
2018-07-17T06:40:50.249Z,19.02
2018-07-17T06:42:50.445Z,19.09
2018-07-17T06:44:50.611Z,19.13
2018-07-17T06:46:50.011Z,19.31
2018-07-17T06:48:50.189Z,19.55
2018-07-17T06:50:50.774Z,19.73
2018-07-17T06:52:50.083Z,19.83
2018-07-17T06:54:50.184Z,19.83
2018-07-17T06:56:50.434Z,19.93
2018-07-17T06:58:50.584Z,20.07
2018-07-17T07:00:50.718Z,20.17
2018-07-17T07:02:49.939Z,20.26
2018-07-17T07:04:50.331Z,20.32
2018-07-17T07:06:50.742Z,20.43
2018-07-17T07:08:49.883Z,20.57
2018-07-17T07:10:49.987Z,20.7
2018-07-17T07:12:50.098Z,20.7
2018-07-17T07:14:50.400Z,20.75
2018-07-17T07:16:50.689Z,20.8
2018-07-17T07:18:50.888Z,20.9
2018-07-17T07:20:50.143Z,21.0
2018-07-17T07:22:50.345Z,21.0
2018-07-17T07:24:50.447Z,21.1
2018-07-17T07:26:50.755Z,21.2
2018-07-17T07:28:49.940Z,21.4
2018-07-17T07:30:50.237Z,21.4
2018-07-17T07:32:50.346Z,21.6
2018-07-17T07:34:50.680Z,21.6
2018-07-17T07:36:49.975Z,21.7
2018-07-17T07:38:50.102Z,21.8
2018-07-17T07:40:50.281Z,21.8
2018-07-17T07:42:51.105Z,21.8
2018-07-17T07:44:50.526Z,21.8
2018-07-17T07:46:50.788Z,22.0
2018-07-17T07:48:49.915Z,22.1
2018-07-17T07:50:50.092Z,22.1
2018-07-17T07:52:50.276Z,22.2
2018-07-17T07:54:50.446Z,22.3
2018-07-17T07:56:50.670Z,22.4
2018-07-17T07:58:50.865Z,22.5
2018-07-17T08:00:50.010Z,22.6
2018-07-17T08:02:50.100Z,22.6
2018-07-17T08:04:50.645Z,22.53
2018-07-17T08:06:49.863Z,22.62
2018-07-17T08:08:50.047Z,22.75
2018-07-17T08:10:50.183Z,22.90
2018-07-17T08:12:50.375Z,22.9
2018-07-17T08:14:50.528Z,23.0
2018-07-17T08:16:50.884Z,23.1
2018-07-17T08:18:50.136Z,23.2
2018-07-17T08:20:50.257Z,23.2
2018-07-17T08:22:50.353Z,23.4
2018-07-17T08:24:50.460Z,23.4
2018-07-17T08:26:50.850Z,23.4
2018-07-17T08:28:50.040Z,23.5
2018-07-17T08:30:50.289Z,23.5
2018-07-17T08:32:50.513Z,23.6
2018-07-17T08:34:50.796Z,23.6
2018-07-17T08:36:50.238Z,23.8
2018-07-17T08:38:50.359Z,23.8
2018-07-17T08:40:50.465Z,23.8
2018-07-17T08:42:50.532Z,23.9
2018-07-17T08:44:50.656Z,23.9
2018-07-17T08:46:49.951Z,24.0
2018-07-17T08:48:50.092Z,24.0
2018-07-17T08:50:50.236Z,24.1
2018-07-17T08:52:50.354Z,24.1
2018-07-17T08:54:50.526Z,24.2
2018-07-17T08:56:49.961Z,24.2
2018-07-17T08:58:50.145Z,24.2
2018-07-17T09:00:50.243Z,24.4
2018-07-17T09:02:50.401Z,24.4
2018-07-17T09:04:50.822Z,24.6
2018-07-17T09:06:50.147Z,24.6
2018-07-17T09:08:50.339Z,24.7
2018-07-17T09:10:50.521Z,24.8
2018-07-17T09:12:50.641Z,24.9
2018-07-17T09:14:50.730Z,24.9
2018-07-17T09:16:50.071Z,25.1
2018-07-17T09:18:50.218Z,25.1
2018-07-17T09:20:50.374Z,25.2
2018-07-17T09:22:50.658Z,25.3
2018-07-17T09:24:49.885Z,25.4
2018-07-17T09:26:50.266Z,25.4
2018-07-17T09:28:50.477Z,25.4
2018-07-17T09:30:50.680Z,25.5
2018-07-17T09:32:50.257Z,25.6
2018-07-17T09:34:50.682Z,25.7
2018-07-17T09:36:49.994Z,25.7
2018-07-17T09:38:50.347Z,25.8
2018-07-17T09:40:50.507Z,25.9
2018-07-17T09:42:50.630Z,26.0
2018-07-17T09:44:50.866Z,26.0
2018-07-17T09:46:50.306Z,26.1
2018-07-17T09:48:50.520Z,26.2
2018-07-17T09:50:50.726Z,26.2
2018-07-17T09:52:49.958Z,26.3
2018-07-17T09:54:50.165Z,26.3
2018-07-17T09:56:50.665Z,26.5
2018-07-17T09:58:49.873Z,26.6
2018-07-17T10:00:50.092Z,26.8
2018-07-17T10:02:50.364Z,26.8
2018-07-17T10:04:50.854Z,26.9
2018-07-17T10:06:50.335Z,27.0
2018-07-17T10:08:50.519Z,27.1
2018-07-17T10:10:50.634Z,27.2
2018-07-17T10:12:50.726Z,27.2
2018-07-17T10:14:49.884Z,27.4
2018-07-17T10:16:50.139Z,27.4
2018-07-17T10:18:50.246Z,27.6
2018-07-17T10:20:50.306Z,27.7
2018-07-17T10:22:50.454Z,27.7
2018-07-17T10:24:50.597Z,27.8
2018-07-17T10:26:50.199Z,28.0
2018-07-17T10:28:50.298Z,28.1
2018-07-17T10:30:50.498Z,28.1
2018-07-17T10:32:50.740Z,28.2
2018-07-17T10:34:50.273Z,28.2
2018-07-17T10:36:50.565Z,28.2
2018-07-17T10:38:50.721Z,28.3
2018-07-17T10:40:50.796Z,28.4
2018-07-17T10:42:49.957Z,28.4
2018-07-17T10:44:50.072Z,28.4
2018-07-17T10:46:50.375Z,28.6
2018-07-17T10:48:50.473Z,28.6
2018-07-17T10:50:50.657Z,28.6
2018-07-17T10:52:49.930Z,28.53
2018-07-17T10:54:50.087Z,28.31
2018-07-17T10:56:50.364Z,28.12
2018-07-17T10:58:50.598Z,28.02
2018-07-17T11:00:51.072Z,27.96
2018-07-17T11:02:50.227Z,27.75
2018-07-17T11:04:50.768Z,27.79
2018-07-17T11:06:49.995Z,27.77
2018-07-17T11:08:50.114Z,27.69
2018-07-17T11:10:50.264Z,27.60
2018-07-17T11:12:50.572Z,27.54
2018-07-17T11:14:50.676Z,27.60
2018-07-17T11:16:49.864Z,27.63
2018-07-17T11:18:49.997Z,27.78
2018-07-17T11:20:50.141Z,28.07
2018-07-17T11:22:50.334Z,28.3
2018-07-17T11:24:50.501Z,28.4
2018-07-17T11:26:50.871Z,28.4
2018-07-17T11:28:49.934Z,28.6
2018-07-17T11:30:50.099Z,28.6
2018-07-17T11:32:50.236Z,28.8
2018-07-17T11:34:50.599Z,29.0
2018-07-17T11:36:49.943Z,29.1
2018-07-17T11:38:50.784Z,29.2
2018-07-17T11:40:50.114Z,29.2
2018-07-17T11:42:50.232Z,29.3
2018-07-17T11:44:50.390Z,29.4
2018-07-17T11:46:50.691Z,29.4
2018-07-17T11:48:50.832Z,29.4
2018-07-17T11:50:49.976Z,29.5
2018-07-17T11:52:50.096Z,29.4
2018-07-17T11:54:50.212Z,29.4
2018-07-17T11:56:50.431Z,29.4
2018-07-17T11:58:50.942Z,29.4
2018-07-17T12:00:50.115Z,29.5
2018-07-17T12:02:50.385Z,29.5
2018-07-17T12:04:50.812Z,29.5
2018-07-17T12:06:50.148Z,29.5
2018-07-17T12:08:50.362Z,29.4
2018-07-17T12:10:50.497Z,29.5
2018-07-17T12:12:51.596Z,29.5
2018-07-17T12:14:50.085Z,29.5
2018-07-17T12:16:50.431Z,29.6
2018-07-17T12:18:50.550Z,29.6
2018-07-17T12:20:50.684Z,29.6
2018-07-17T12:22:49.952Z,29.6
2018-07-17T12:24:50.159Z,29.6
2018-07-17T12:26:50.495Z,29.6
2018-07-17T12:28:50.675Z,29.6
2018-07-17T12:30:50.934Z,29.6
2018-07-17T12:32:50.152Z,29.7
2018-07-17T12:34:50.890Z,29.8
2018-07-17T12:36:50.337Z,29.8
2018-07-17T12:38:50.424Z,29.8
2018-07-17T12:40:50.627Z,29.8
2018-07-17T12:42:50.838Z,29.9
2018-07-17T12:44:49.970Z,29.8
2018-07-17T12:46:50.214Z,29.8
2018-07-17T12:48:50.327Z,29.7
2018-07-17T12:50:50.482Z,29.6
2018-07-17T12:52:50.618Z,29.6
2018-07-17T12:54:50.733Z,29.6
2018-07-17T12:56:50.022Z,29.6
2018-07-17T12:58:50.141Z,29.7
2018-07-17T13:00:50.272Z,29.8
2018-07-17T13:02:51.249Z,29.8
2018-07-17T13:04:50.762Z,29.9
2018-07-17T13:06:50.084Z,29.9
2018-07-17T13:08:50.252Z,30.0
2018-07-17T13:10:50.410Z,30.0
2018-07-17T13:12:50.516Z,30.0
2018-07-17T13:14:50.877Z,30.0
2018-07-17T13:16:50.295Z,30.0
2018-07-17T13:18:50.540Z,30.0
2018-07-17T13:20:50.709Z,30.1
2018-07-17T13:22:49.853Z,30.1
2018-07-17T13:24:50.083Z,30.1
2018-07-17T13:26:50.369Z,30.2
2018-07-17T13:28:50.527Z,30.3
2018-07-17T13:30:50.797Z,30.4
2018-07-17T13:32:49.944Z,30.4
2018-07-17T13:34:50.248Z,30.4
2018-07-17T13:36:50.539Z,30.4
2018-07-17T13:38:50.629Z,30.5
2018-07-17T13:40:50.674Z,30.6
2018-07-17T13:42:49.909Z,30.6
2018-07-17T13:44:50.657Z,30.6
2018-07-17T13:46:50.208Z,30.7
2018-07-17T13:48:50.366Z,30.8
2018-07-17T13:50:50.493Z,30.8
2018-07-17T13:52:50.910Z,30.8
2018-07-17T13:54:50.114Z,31.0
2018-07-17T13:56:50.549Z,31.0
2018-07-17T13:58:50.668Z,31.0
2018-07-17T14:00:50.870Z,31.0
2018-07-17T14:02:50.018Z,31.1
2018-07-17T14:04:50.350Z,31.2
2018-07-17T14:06:50.979Z,31.3
2018-07-17T14:08:50.179Z,31.4
2018-07-17T14:10:50.280Z,31.5
2018-07-17T14:12:50.452Z,31.5
2018-07-17T14:14:50.559Z,31.5
2018-07-17T14:16:50.820Z,31.6
2018-07-17T14:18:49.944Z,31.6
2018-07-17T14:20:50.090Z,31.6
2018-07-17T14:22:50.357Z,31.6
2018-07-17T14:24:50.732Z,31.6
2018-07-17T14:26:50.195Z,31.7
2018-07-17T14:28:50.267Z,31.7
2018-07-17T14:30:50.444Z,31.7
2018-07-17T14:32:50.545Z,31.7
2018-07-17T14:34:49.947Z,31.7
2018-07-17T14:36:50.288Z,31.7
2018-07-17T14:38:50.389Z,31.7
2018-07-17T14:40:50.539Z,31.6
2018-07-17T14:42:50.654Z,31.4
2018-07-17T14:44:50.812Z,31.2
2018-07-17T14:46:50.217Z,31.1
2018-07-17T14:48:50.357Z,31.1
2018-07-17T14:50:50.599Z,30.9
2018-07-17T14:52:50.880Z,30.9
2018-07-17T14:54:50.055Z,30.8
2018-07-17T14:56:50.318Z,30.8
2018-07-17T14:58:50.558Z,30.8
2018-07-17T15:00:50.703Z,30.8
2018-07-17T15:02:49.879Z,30.9
2018-07-17T15:04:50.285Z,30.9
2018-07-17T15:06:50.567Z,30.9
2018-07-17T15:08:50.704Z,31.0
2018-07-17T15:10:49.892Z,31.1
2018-07-17T15:12:50.101Z,31.1
2018-07-17T15:14:50.233Z,31.1
2018-07-17T15:16:50.566Z,31.2
2018-07-17T15:18:50.656Z,31.2
2018-07-17T15:20:50.806Z,31.0
2018-07-17T15:22:49.951Z,31.0
2018-07-17T15:24:50.175Z,31.0
2018-07-17T15:26:50.421Z,31.0
2018-07-17T15:28:50.582Z,31.0
2018-07-17T15:30:50.816Z,31.0
2018-07-17T15:32:49.953Z,31.0
2018-07-17T15:34:50.222Z,31.0
2018-07-17T15:36:50.507Z,31.0
2018-07-17T15:38:50.666Z,30.9
2018-07-17T15:40:50.761Z,30.9
2018-07-17T15:42:49.980Z,30.9
2018-07-17T15:44:50.092Z,30.9
2018-07-17T15:46:50.299Z,30.9
2018-07-17T15:48:50.566Z,30.8
2018-07-17T15:50:50.757Z,30.8
2018-07-17T15:52:49.966Z,30.8
2018-07-17T15:54:50.115Z,30.9
2018-07-17T15:56:50.404Z,30.9
2018-07-17T15:58:50.473Z,30.9
2018-07-17T16:00:50.626Z,31.0
2018-07-17T16:02:49.948Z,31.0
2018-07-17T16:04:50.255Z,31.0
2018-07-17T16:06:50.626Z,31.0
2018-07-17T16:08:50.769Z,31.0
2018-07-17T16:10:49.968Z,31.0
2018-07-17T16:12:50.141Z,31.0
2018-07-17T16:14:50.327Z,31.0
2018-07-17T16:16:50.590Z,31.0
2018-07-17T16:18:50.859Z,31.0
2018-07-17T16:20:49.963Z,31.0
2018-07-17T16:22:50.085Z,31.0
2018-07-17T16:24:50.256Z,31.0
2018-07-17T16:26:50.474Z,31.0
2018-07-17T16:28:50.658Z,31.0
2018-07-17T16:30:50.865Z,31.1
2018-07-17T16:32:50.187Z,31.1
2018-07-17T16:34:50.835Z,31.2
2018-07-17T16:36:50.944Z,31.1
2018-07-17T16:38:50.405Z,31.2
2018-07-17T16:40:50.623Z,31.2
2018-07-17T16:42:50.789Z,31.2
2018-07-17T16:44:49.969Z,31.1
2018-07-17T16:46:50.227Z,31.2
2018-07-17T16:48:50.445Z,31.2
2018-07-17T16:50:50.596Z,31.2
2018-07-17T16:52:49.993Z,31.2
2018-07-17T16:54:50.101Z,31.2
2018-07-17T16:56:50.348Z,31.1
2018-07-17T16:58:50.489Z,31.0
2018-07-17T17:00:50.824Z,31.0
2018-07-17T17:02:50.092Z,30.78
2018-07-17T17:04:50.640Z,30.12
2018-07-17T17:06:50.022Z,29.81
2018-07-17T17:08:50.281Z,29.53
2018-07-17T17:10:50.508Z,29.39
2018-07-17T17:12:49.882Z,29.20
2018-07-17T17:14:50.441Z,29.16
2018-07-17T17:16:49.909Z,29.25
2018-07-17T17:18:50.094Z,29.21
2018-07-17T17:20:50.558Z,29.19
2018-07-17T17:22:50.726Z,29.08
2018-07-17T17:24:49.895Z,28.99
2018-07-17T17:26:50.158Z,28.92
2018-07-17T17:28:50.287Z,28.80
2018-07-17T17:30:50.434Z,28.64
2018-07-17T17:32:51.127Z,28.40
2018-07-17T17:34:50.823Z,28.28
2018-07-17T17:36:50.851Z,28.16
2018-07-17T17:38:50.168Z,28.03
2018-07-17T17:40:50.323Z,27.88
2018-07-17T17:42:50.508Z,27.73
2018-07-17T17:44:50.621Z,27.66
2018-07-17T17:46:49.894Z,27.59
2018-07-17T17:48:50.045Z,27.52
2018-07-17T17:50:50.265Z,27.38
2018-07-17T17:52:50.715Z,27.34
2018-07-17T17:54:49.875Z,27.24
2018-07-17T17:56:50.161Z,27.16
2018-07-17T17:58:50.282Z,27.08
2018-07-17T18:00:50.444Z,26.99
2018-07-17T18:02:50.768Z,26.94
2018-07-17T18:04:50.745Z,26.91
2018-07-17T18:06:50.000Z,26.90
2018-07-17T18:08:50.285Z,26.85
2018-07-17T18:10:50.356Z,26.80
2018-07-17T18:12:50.597Z,26.75
2018-07-17T18:14:50.757Z,26.68
2018-07-17T18:16:50.159Z,26.63
2018-07-17T18:18:50.456Z,26.59
2018-07-17T18:20:50.673Z,26.59
2018-07-17T18:22:50.772Z,26.54
2018-07-17T18:24:49.942Z,26.52
2018-07-17T18:26:50.350Z,26.49
2018-07-17T18:28:50.517Z,26.45
2018-07-17T18:30:50.822Z,26.42
2018-07-17T18:32:50.036Z,26.37
2018-07-17T18:34:50.368Z,26.32
2018-07-17T18:36:50.818Z,26.25
2018-07-17T18:38:49.965Z,26.14
2018-07-17T18:40:50.243Z,26.09
2018-07-17T18:42:50.460Z,26.00
2018-07-17T18:44:50.595Z,25.92
2018-07-17T18:46:49.994Z,25.81
2018-07-17T18:48:50.143Z,25.75
2018-07-17T18:50:50.349Z,25.65
2018-07-17T18:52:50.540Z,25.59
2018-07-17T18:54:50.656Z,25.57
2018-07-17T18:56:49.943Z,25.54
2018-07-17T18:58:50.124Z,25.52
2018-07-17T19:00:50.302Z,25.47
2018-07-17T19:02:50.456Z,25.38
2018-07-17T19:04:49.946Z,25.35
2018-07-17T19:06:50.298Z,25.31
2018-07-17T19:08:50.465Z,25.24
2018-07-17T19:10:50.577Z,25.20
2018-07-17T19:12:50.780Z,25.14
2018-07-17T19:14:49.972Z,25.00
2018-07-17T19:16:50.681Z,24.90
2018-07-17T19:18:49.965Z,24.84
2018-07-17T19:20:50.135Z,24.83
2018-07-17T19:22:50.235Z,24.82
2018-07-17T19:24:50.402Z,24.78
2018-07-17T19:26:50.668Z,24.74
2018-07-17T19:28:50.833Z,24.65
2018-07-17T19:30:49.987Z,24.66
2018-07-17T19:32:50.226Z,24.63
2018-07-17T19:34:50.577Z,24.60
2018-07-17T19:36:49.873Z,24.46
2018-07-17T19:38:50.057Z,24.33
2018-07-17T19:40:50.573Z,24.27
2018-07-17T19:42:49.947Z,24.19
2018-07-17T19:44:50.069Z,24.09
2018-07-17T19:46:50.361Z,24.07
2018-07-17T19:48:50.534Z,24.00
2018-07-17T19:50:50.747Z,23.94
2018-07-17T19:52:50.489Z,23.87
2018-07-17T19:54:50.839Z,23.83
2018-07-17T19:56:50.259Z,23.80
2018-07-17T19:58:50.371Z,23.74
2018-07-17T20:00:50.452Z,23.69
2018-07-17T20:02:50.636Z,23.68
2018-07-17T20:04:50.208Z,23.66
2018-07-17T20:06:50.444Z,23.61
2018-07-17T20:08:50.610Z,23.55
2018-07-17T20:10:50.753Z,23.41
2018-07-17T20:12:49.910Z,23.42
2018-07-17T20:14:50.133Z,23.42
2018-07-17T20:16:50.512Z,23.43
2018-07-17T20:18:50.717Z,23.45
2018-07-17T20:20:49.901Z,23.47
2018-07-17T20:22:50.020Z,23.44
2018-07-17T20:24:50.228Z,23.39
2018-07-17T20:26:50.742Z,23.37
2018-07-17T20:28:49.898Z,23.42
2018-07-17T20:30:50.015Z,23.43
2018-07-17T20:32:50.208Z,23.40
2018-07-17T20:34:50.595Z,23.34
2018-07-17T20:36:49.970Z,23.29
2018-07-17T20:38:50.321Z,23.28
2018-07-17T20:40:50.905Z,23.26
2018-07-17T20:42:50.212Z,23.22
2018-07-17T20:44:50.537Z,23.28
2018-07-17T20:46:50.807Z,23.30
2018-07-17T20:48:49.942Z,23.26
2018-07-17T20:50:50.270Z,23.14
2018-07-17T20:52:50.879Z,23.05
2018-07-17T20:54:50.133Z,22.97
2018-07-17T20:56:50.426Z,22.82
2018-07-17T20:58:51.203Z,22.75
2018-07-17T21:00:50.372Z,22.75
2018-07-17T21:02:50.584Z,22.69
2018-07-17T21:04:50.263Z,22.57
2018-07-17T21:06:50.717Z,22.45
2018-07-17T21:08:49.929Z,22.35
2018-07-17T21:10:50.125Z,22.22
2018-07-17T21:12:50.276Z,22.15
2018-07-17T21:14:50.435Z,22.01
2018-07-17T21:16:50.691Z,21.88
2018-07-17T21:18:49.885Z,21.81
2018-07-17T21:20:50.044Z,21.65
2018-07-17T21:22:50.121Z,21.58
2018-07-17T21:24:50.256Z,21.48
2018-07-17T21:26:50.512Z,21.38
2018-07-17T21:28:50.790Z,21.26
2018-07-17T21:30:50.015Z,21.08
2018-07-17T21:32:50.144Z,20.95
2018-07-17T21:34:50.570Z,20.83
2018-07-17T21:36:49.874Z,20.66
2018-07-17T21:38:50.025Z,20.51
2018-07-17T21:40:50.200Z,20.39
2018-07-17T21:42:50.386Z,20.32
2018-07-17T21:44:50.569Z,20.26
2018-07-17T21:46:49.901Z,20.25
2018-07-17T21:48:50.185Z,20.19
2018-07-17T21:50:50.390Z,20.13
2018-07-17T21:52:50.482Z,20.06
2018-07-17T21:54:50.622Z,20.03
2018-07-17T21:56:49.950Z,19.95
2018-07-17T21:58:50.177Z,19.95
2018-07-17T22:00:50.369Z,19.94
2018-07-17T22:02:50.522Z,20.00
2018-07-17T22:04:49.925Z,20.01
2018-07-17T22:06:50.315Z,20.00
2018-07-17T22:08:50.493Z,20.02
2018-07-17T22:10:50.773Z,20.03
2018-07-17T22:12:49.945Z,20.03
2018-07-17T22:14:50.097Z,20.04
2018-07-17T22:16:50.477Z,20.04
2018-07-17T22:18:50.601Z,20.05
2018-07-17T22:20:50.728Z,20.06
2018-07-17T22:22:50.020Z,20.06
2018-07-17T22:24:50.194Z,20.09
2018-07-17T22:26:50.599Z,20.10
2018-07-17T22:28:50.797Z,20.13
2018-07-17T22:30:49.873Z,20.17
2018-07-17T22:32:49.985Z,20.23
2018-07-17T22:34:50.405Z,20.28
2018-07-17T22:36:50.759Z,20.36
2018-07-17T22:38:49.901Z,20.42
2018-07-17T22:40:50.100Z,20.49
2018-07-17T22:42:50.321Z,20.56
2018-07-17T22:44:50.436Z,20.59
2018-07-17T22:46:50.800Z,20.59
2018-07-17T22:48:49.967Z,20.58
2018-07-17T22:50:50.106Z,20.57
2018-07-17T22:52:50.265Z,20.54
2018-07-17T22:54:50.421Z,20.51
2018-07-17T22:56:50.882Z,20.50
2018-07-17T22:58:50.045Z,20.52
2018-07-17T23:00:50.233Z,20.58
2018-07-17T23:02:50.371Z,20.62
2018-07-17T23:04:49.983Z,20.63
2018-07-17T23:06:50.291Z,20.64
2018-07-17T23:08:50.424Z,20.66
2018-07-17T23:10:50.598Z,20.67
2018-07-17T23:12:50.715Z,20.68
2018-07-17T23:14:49.949Z,20.66
2018-07-17T23:16:50.367Z,20.65
2018-07-17T23:18:50.480Z,20.65
2018-07-17T23:20:50.687Z,20.66
2018-07-17T23:22:49.870Z,20.68
2018-07-17T23:24:50.003Z,20.71
2018-07-17T23:26:50.420Z,20.75
2018-07-17T23:28:50.564Z,20.79
2018-07-17T23:30:50.722Z,20.8
2018-07-17T23:32:50.023Z,20.8
2018-07-17T23:34:50.368Z,20.8
2018-07-17T23:36:50.661Z,20.86
2018-07-17T23:38:50.057Z,20.88
2018-07-17T23:40:50.187Z,20.9
2018-07-17T23:42:50.415Z,20.8
2018-07-17T23:44:50.550Z,20.90
2018-07-17T23:46:50.836Z,20.9
2018-07-17T23:48:50.000Z,20.9
2018-07-17T23:50:50.159Z,20.9
2018-07-17T23:52:50.294Z,20.9
2018-07-17T23:54:50.427Z,20.9
2018-07-17T23:56:50.811Z,20.9
2018-07-17T23:58:49.982Z,21.0
